sensor_id;sensor_type;location;lat;lon;timestamp;P1;durP1;ratioP1;P2;durP2;ratioP2
18194;SDS011;9223;50.988;3.162;2023-01-06T00:02:41;6.30;;;1.80;;
18194;SDS011;9223;50.988;3.162;2023-01-06T00:08:47;2.58;;;1.45;;
18194;SDS011;9223;50.988;3.162;2023-01-06T00:14:50;3.38;;;1.42;;
18194;SDS011;9223;50.988;3.162;2023-01-06T00:20:54;2.03;;;0.90;;
18194;SDS011;9223;50.988;3.162;2023-01-06T00:27:01;3.10;;;1.00;;
18194;SDS011;9223;50.988;3.162;2023-01-06T00:33:05;1.73;;;0.88;;
18194;SDS011;9223;50.988;3.162;2023-01-06T00:39:10;1.90;;;1.33;;
18194;SDS011;9223;50.988;3.162;2023-01-06T00:45:15;3.50;;;1.20;;
18194;SDS011;9223;50.988;3.162;2023-01-06T00:51:18;1.67;;;0.98;;
18194;SDS011;9223;50.988;3.162;2023-01-06T00:57:22;1.60;;;0.77;;
18194;SDS011;9223;50.988;3.162;2023-01-06T01:03:27;3.30;;;1.13;;
18194;SDS011;9223;50.988;3.162;2023-01-06T01:09:31;2.53;;;1.40;;
18194;SDS011;9223;50.988;3.162;2023-01-06T01:15:34;3.20;;;1.35;;
18194;SDS011;9223;50.988;3.162;2023-01-06T01:21:39;1.27;;;1.00;;
18194;SDS011;9223;50.988;3.162;2023-01-06T01:27:42;3.22;;;1.40;;
18194;SDS011;9223;50.988;3.162;2023-01-06T01:33:47;3.20;;;1.17;;
18194;SDS011;9223;50.988;3.162;2023-01-06T01:39:52;3.63;;;0.90;;
18194;SDS011;9223;50.988;3.162;2023-01-06T01:45:55;3.88;;;1.05;;
18194;SDS011;9223;50.988;3.162;2023-01-06T01:51:59;1.77;;;0.88;;
18194;SDS011;9223;50.988;3.162;2023-01-06T01:58:05;1.52;;;1.20;;
18194;SDS011;9223;50.988;3.162;2023-01-06T02:04:10;3.30;;;1.20;;
18194;SDS011;9223;50.988;3.162;2023-01-06T02:10:14;1.45;;;0.85;;
18194;SDS011;9223;50.988;3.162;2023-01-06T02:16:20;3.08;;;0.85;;
18194;SDS011;9223;50.988;3.162;2023-01-06T02:22:30;3.17;;;1.30;;
18194;SDS011;9223;50.988;3.162;2023-01-06T02:28:57;2.05;;;1.10;;
18194;SDS011;9223;50.988;3.162;2023-01-06T02:35:08;2.33;;;0.80;;
18194;SDS011;9223;50.988;3.162;2023-01-06T02:41:18;1.40;;;0.93;;
18194;SDS011;9223;50.988;3.162;2023-01-06T02:47:26;1.58;;;1.17;;
18194;SDS011;9223;50.988;3.162;2023-01-06T02:53:37;1.42;;;0.93;;
18194;SDS011;9223;50.988;3.162;2023-01-06T02:59:42;1.30;;;0.93;;
18194;SDS011;9223;50.988;3.162;2023-01-06T03:05:49;1.05;;;0.80;;
18194;SDS011;9223;50.988;3.162;2023-01-06T03:11:55;2.05;;;0.70;;
18194;SDS011;9223;50.988;3.162;2023-01-06T03:17:59;0.95;;;0.50;;
18194;SDS011;9223;50.988;3.162;2023-01-06T03:24:03;1.52;;;0.57;;
18194;SDS011;9223;50.988;3.162;2023-01-06T03:30:09;0.40;;;0.40;;
18194;SDS011;9223;50.988;3.162;2023-01-06T03:36:15;1.55;;;0.60;;
18194;SDS011;9223;50.988;3.162;2023-01-06T03:42:23;0.82;;;0.65;;
18194;SDS011;9223;50.988;3.162;2023-01-06T03:48:50;0.63;;;0.50;;
18194;SDS011;9223;50.988;3.162;2023-01-06T03:54:56;0.70;;;0.60;;
18194;SDS011;9223;50.988;3.162;2023-01-06T04:01:01;1.10;;;0.63;;
18194;SDS011;9223;50.988;3.162;2023-01-06T04:07:06;1.65;;;0.65;;
18194;SDS011;9223;50.988;3.162;2023-01-06T04:13:10;4.18;;;0.95;;
18194;SDS011;9223;50.988;3.162;2023-01-06T04:19:13;0.95;;;0.70;;
18194;SDS011;9223;50.988;3.162;2023-01-06T04:25:18;1.08;;;0.70;;
18194;SDS011;9223;50.988;3.162;2023-01-06T04:31:22;0.80;;;0.60;;
18194;SDS011;9223;50.988;3.162;2023-01-06T04:37:25;2.08;;;0.77;;
18194;SDS011;9223;50.988;3.162;2023-01-06T04:43:30;1.13;;;0.80;;
18194;SDS011;9223;50.988;3.162;2023-01-06T04:49:33;1.65;;;0.90;;
18194;SDS011;9223;50.988;3.162;2023-01-06T04:55:37;1.02;;;0.50;;
18194;SDS011;9223;50.988;3.162;2023-01-06T05:01:42;1.45;;;0.65;;
18194;SDS011;9223;50.988;3.162;2023-01-06T05:07:45;1.23;;;0.60;;
18194;SDS011;9223;50.988;3.162;2023-01-06T05:13:49;1.10;;;0.57;;
18194;SDS011;9223;50.988;3.162;2023-01-06T05:19:53;0.93;;;0.70;;
18194;SDS011;9223;50.988;3.162;2023-01-06T05:25:57;0.80;;;0.70;;
18194;SDS011;9223;50.988;3.162;2023-01-06T05:32:00;0.93;;;0.80;;
18194;SDS011;9223;50.988;3.162;2023-01-06T05:38:05;0.85;;;0.70;;
18194;SDS011;9223;50.988;3.162;2023-01-06T05:44:09;0.88;;;0.73;;
18194;SDS011;9223;50.988;3.162;2023-01-06T05:50:13;0.60;;;0.60;;
18194;SDS011;9223;50.988;3.162;2023-01-06T05:56:19;0.63;;;0.63;;
18194;SDS011;9223;50.988;3.162;2023-01-06T06:02:22;0.75;;;0.70;;
18194;SDS011;9223;50.988;3.162;2023-01-06T06:08:27;0.70;;;0.60;;
18194;SDS011;9223;50.988;3.162;2023-01-06T06:14:32;1.20;;;0.65;;
18194;SDS011;9223;50.988;3.162;2023-01-06T06:20:36;0.73;;;0.73;;
18194;SDS011;9223;50.988;3.162;2023-01-06T06:26:39;1.33;;;0.85;;
18194;SDS011;9223;50.988;3.162;2023-01-06T06:32:44;2.17;;;1.17;;
18194;SDS011;9223;50.988;3.162;2023-01-06T06:38:48;1.73;;;0.80;;
18194;SDS011;9223;50.988;3.162;2023-01-06T06:44:51;1.13;;;0.80;;
18194;SDS011;9223;50.988;3.162;2023-01-06T06:50:57;1.50;;;0.90;;
18194;SDS011;9223;50.988;3.162;2023-01-06T06:57:00;1.73;;;0.90;;
18194;SDS011;9223;50.988;3.162;2023-01-06T07:03:04;1.58;;;0.90;;
18194;SDS011;9223;50.988;3.162;2023-01-06T07:09:09;1.23;;;1.10;;
18194;SDS011;9223;50.988;3.162;2023-01-06T07:15:12;1.60;;;1.50;;
18194;SDS011;9223;50.988;3.162;2023-01-06T07:21:16;2.78;;;1.30;;
18194;SDS011;9223;50.988;3.162;2023-01-06T07:27:21;3.33;;;1.42;;
18194;SDS011;9223;50.988;3.162;2023-01-06T07:33:25;2.13;;;1.45;;
18194;SDS011;9223;50.988;3.162;2023-01-06T07:39:29;1.42;;;1.33;;
18194;SDS011;9223;50.988;3.162;2023-01-06T07:45:34;1.85;;;1.20;;
18194;SDS011;9223;50.988;3.162;2023-01-06T07:51:38;1.80;;;1.60;;
18194;SDS011;9223;50.988;3.162;2023-01-06T07:57:41;5.50;;;1.70;;
18194;SDS011;9223;50.988;3.162;2023-01-06T08:03:46;3.75;;;1.35;;
18194;SDS011;9223;50.988;3.162;2023-01-06T08:09:50;3.97;;;1.75;;
18194;SDS011;9223;50.988;3.162;2023-01-06T08:15:53;3.95;;;1.52;;
18194;SDS011;9223;50.988;3.162;2023-01-06T08:21:58;7.55;;;1.70;;
18194;SDS011;9223;50.988;3.162;2023-01-06T08:28:02;5.45;;;2.05;;
18194;SDS011;9223;50.988;3.162;2023-01-06T08:34:05;5.20;;;1.38;;
18194;SDS011;9223;50.988;3.162;2023-01-06T08:40:10;7.63;;;1.48;;
18194;SDS011;9223;50.988;3.162;2023-01-06T08:46:15;4.32;;;1.30;;
18194;SDS011;9223;50.988;3.162;2023-01-06T08:52:19;4.60;;;1.50;;
18194;SDS011;9223;50.988;3.162;2023-01-06T08:58:24;5.93;;;1.40;;
18194;SDS011;9223;50.988;3.162;2023-01-06T09:04:27;4.60;;;1.70;;
18194;SDS011;9223;50.988;3.162;2023-01-06T09:10:31;6.18;;;1.70;;
18194;SDS011;9223;50.988;3.162;2023-01-06T09:16:35;4.45;;;1.88;;
18194;SDS011;9223;50.988;3.162;2023-01-06T09:22:39;4.97;;;2.15;;
18194;SDS011;9223;50.988;3.162;2023-01-06T09:28:42;8.45;;;2.13;;
18194;SDS011;9223;50.988;3.162;2023-01-06T09:34:47;7.82;;;2.13;;
18194;SDS011;9223;50.988;3.162;2023-01-06T09:40:55;7.22;;;1.65;;
18194;SDS011;9223;50.988;3.162;2023-01-06T09:47:01;8.95;;;1.58;;
18194;SDS011;9223;50.988;3.162;2023-01-06T09:53:08;5.90;;;1.75;;
18194;SDS011;9223;50.988;3.162;2023-01-06T09:59:15;5.40;;;1.60;;
18194;SDS011;9223;50.988;3.162;2023-01-06T10:05:20;7.13;;;1.15;;
18194;SDS011;9223;50.988;3.162;2023-01-06T10:11:28;4.72;;;1.40;;
18194;SDS011;9223;50.988;3.162;2023-01-06T10:17:36;7.55;;;1.75;;
18194;SDS011;9223;50.988;3.162;2023-01-06T10:23:47;5.22;;;1.45;;
18194;SDS011;9223;50.988;3.162;2023-01-06T10:29:58;5.65;;;1.60;;
18194;SDS011;9223;50.988;3.162;2023-01-06T10:36:08;7.00;;;1.75;;
18194;SDS011;9223;50.988;3.162;2023-01-06T10:42:16;6.47;;;2.20;;
18194;SDS011;9223;50.988;3.162;2023-01-06T10:48:40;4.57;;;1.30;;
18194;SDS011;9223;50.988;3.162;2023-01-06T10:54:44;5.90;;;1.77;;
18194;SDS011;9223;50.988;3.162;2023-01-06T11:00:54;7.32;;;2.67;;
18194;SDS011;9223;50.988;3.162;2023-01-06T11:07:00;8.20;;;2.47;;
18194;SDS011;9223;50.988;3.162;2023-01-06T11:13:05;6.88;;;2.00;;
18194;SDS011;9223;50.988;3.162;2023-01-06T11:19:19;4.18;;;1.65;;
18194;SDS011;9223;50.988;3.162;2023-01-06T11:25:25;7.35;;;1.85;;
18194;SDS011;9223;50.988;3.162;2023-01-06T11:31:32;5.88;;;2.05;;
18194;SDS011;9223;50.988;3.162;2023-01-06T11:37:36;4.43;;;1.67;;
18194;SDS011;9223;50.988;3.162;2023-01-06T11:43:43;9.73;;;1.60;;
18194;SDS011;9223;50.988;3.162;2023-01-06T11:49:52;5.82;;;2.28;;
18194;SDS011;9223;50.988;3.162;2023-01-06T11:55:56;5.30;;;2.00;;
18194;SDS011;9223;50.988;3.162;2023-01-06T12:02:01;7.35;;;1.60;;
18194;SDS011;9223;50.988;3.162;2023-01-06T12:08:07;3.70;;;1.48;;
18194;SDS011;9223;50.988;3.162;2023-01-06T12:14:15;7.65;;;1.90;;
18194;SDS011;9223;50.988;3.162;2023-01-06T12:20:31;3.65;;;1.35;;
18194;SDS011;9223;50.988;3.162;2023-01-06T12:26:35;7.15;;;2.53;;
18194;SDS011;9223;50.988;3.162;2023-01-06T12:32:41;4.28;;;1.63;;
18194;SDS011;9223;50.988;3.162;2023-01-06T12:38:48;6.15;;;2.13;;
18194;SDS011;9223;50.988;3.162;2023-01-06T12:44:56;5.10;;;2.30;;
18194;SDS011;9223;50.988;3.162;2023-01-06T12:51:03;3.35;;;1.50;;
18194;SDS011;9223;50.988;3.162;2023-01-06T12:57:14;3.05;;;1.95;;
18194;SDS011;9223;50.988;3.162;2023-01-06T13:09:46;1.77;;;1.30;;
18194;SDS011;9223;50.988;3.162;2023-01-06T13:15:55;3.47;;;2.00;;
18194;SDS011;9223;50.988;3.162;2023-01-06T13:21:59;1.65;;;1.52;;
18194;SDS011;9223;50.988;3.162;2023-01-06T13:28:04;3.20;;;1.60;;
18194;SDS011;9223;50.988;3.162;2023-01-06T13:34:25;2.05;;;1.30;;
18194;SDS011;9223;50.988;3.162;2023-01-06T13:40:34;1.95;;;1.17;;
18194;SDS011;9223;50.988;3.162;2023-01-06T13:46:38;1.45;;;1.10;;
18194;SDS011;9223;50.988;3.162;2023-01-06T13:52:43;3.38;;;1.60;;
18194;SDS011;9223;50.988;3.162;2023-01-06T13:58:47;2.65;;;1.30;;
18194;SDS011;9223;50.988;3.162;2023-01-06T14:04:51;2.13;;;1.10;;
18194;SDS011;9223;50.988;3.162;2023-01-06T14:10:59;1.25;;;0.90;;
18194;SDS011;9223;50.988;3.162;2023-01-06T14:17:03;1.25;;;1.15;;
18194;SDS011;9223;50.988;3.162;2023-01-06T14:35:45;2.05;;;1.48;;
18194;SDS011;9223;50.988;3.162;2023-01-06T14:41:51;6.85;;;1.58;;
18194;SDS011;9223;50.988;3.162;2023-01-06T14:47:58;3.05;;;1.98;;
18194;SDS011;9223;50.988;3.162;2023-01-06T14:54:05;2.22;;;2.03;;
18194;SDS011;9223;50.988;3.162;2023-01-06T15:00:12;3.10;;;2.00;;
18194;SDS011;9223;50.988;3.162;2023-01-06T15:06:18;2.55;;;2.05;;
18194;SDS011;9223;50.988;3.162;2023-01-06T15:12:27;2.67;;;2.45;;
18194;SDS011;9223;50.988;3.162;2023-01-06T15:18:31;3.30;;;2.67;;
18194;SDS011;9223;50.988;3.162;2023-01-06T15:24:34;3.30;;;2.70;;
18194;SDS011;9223;50.988;3.162;2023-01-06T15:30:47;3.33;;;2.30;;
18194;SDS011;9223;50.988;3.162;2023-01-06T15:36:51;8.35;;;5.95;;
18194;SDS011;9223;50.988;3.162;2023-01-06T15:42:55;4.13;;;3.08;;
18194;SDS011;9223;50.988;3.162;2023-01-06T15:49:00;5.55;;;4.03;;
18194;SDS011;9223;50.988;3.162;2023-01-06T15:55:05;3.63;;;2.75;;
18194;SDS011;9223;50.988;3.162;2023-01-06T16:01:10;2.50;;;2.30;;
18194;SDS011;9223;50.988;3.162;2023-01-06T16:07:20;3.83;;;2.08;;
18194;SDS011;9223;50.988;3.162;2023-01-06T16:13:25;3.20;;;2.30;;
18194;SDS011;9223;50.988;3.162;2023-01-06T16:19:29;2.85;;;2.55;;
18194;SDS011;9223;50.988;3.162;2023-01-06T16:25:34;2.70;;;2.47;;
18194;SDS011;9223;50.988;3.162;2023-01-06T16:31:38;3.45;;;3.10;;
18194;SDS011;9223;50.988;3.162;2023-01-06T16:37:42;3.28;;;2.90;;
18194;SDS011;9223;50.988;3.162;2023-01-06T16:43:46;3.63;;;2.28;;
18194;SDS011;9223;50.988;3.162;2023-01-06T16:49:50;4.72;;;2.78;;
18194;SDS011;9223;50.988;3.162;2023-01-06T16:55:54;2.80;;;2.50;;
18194;SDS011;9223;50.988;3.162;2023-01-06T17:01:59;3.65;;;3.30;;
18194;SDS011;9223;50.988;3.162;2023-01-06T17:08:04;4.05;;;2.78;;
18194;SDS011;9223;50.988;3.162;2023-01-06T17:14:12;7.32;;;4.03;;
18194;SDS011;9223;50.988;3.162;2023-01-06T17:20:17;5.70;;;4.18;;
18194;SDS011;9223;50.988;3.162;2023-01-06T17:26:21;6.78;;;4.22;;
18194;SDS011;9223;50.988;3.162;2023-01-06T17:32:26;6.88;;;4.35;;
18194;SDS011;9223;50.988;3.162;2023-01-06T17:52:34;5.57;;;4.30;;
18194;SDS011;9223;50.988;3.162;2023-01-06T17:58:40;4.32;;;3.92;;
18194;SDS011;9223;50.988;3.162;2023-01-06T18:04:44;3.88;;;3.47;;
18194;SDS011;9223;50.988;3.162;2023-01-06T18:10:50;3.90;;;3.20;;
18194;SDS011;9223;50.988;3.162;2023-01-06T18:16:54;3.72;;;3.33;;
18194;SDS011;9223;50.988;3.162;2023-01-06T18:22:59;3.88;;;3.45;;
18194;SDS011;9223;50.988;3.162;2023-01-06T18:29:08;4.95;;;3.50;;
18194;SDS011;9223;50.988;3.162;2023-01-06T18:35:14;4.13;;;3.35;;
18194;SDS011;9223;50.988;3.162;2023-01-06T18:41:18;5.68;;;4.78;;
18194;SDS011;9223;50.988;3.162;2023-01-06T18:47:25;11.07;;;6.25;;
18194;SDS011;9223;50.988;3.162;2023-01-06T18:53:30;6.43;;;4.80;;
18194;SDS011;9223;50.988;3.162;2023-01-06T18:59:33;4.78;;;4.28;;
18194;SDS011;9223;50.988;3.162;2023-01-06T19:05:38;5.80;;;4.63;;
18194;SDS011;9223;50.988;3.162;2023-01-06T19:11:41;5.88;;;4.22;;
18194;SDS011;9223;50.988;3.162;2023-01-06T19:17:45;4.78;;;4.22;;
18194;SDS011;9223;50.988;3.162;2023-01-06T19:23:51;5.43;;;3.95;;
18194;SDS011;9223;50.988;3.162;2023-01-06T19:30:00;4.55;;;4.10;;
18194;SDS011;9223;50.988;3.162;2023-01-06T19:36:18;4.75;;;3.80;;
18194;SDS011;9223;50.988;3.162;2023-01-06T19:42:29;3.38;;;2.80;;
18194;SDS011;9223;50.988;3.162;2023-01-06T19:48:35;9.90;;;6.22;;
18194;SDS011;9223;50.988;3.162;2023-01-06T19:54:39;8.07;;;5.45;;
18194;SDS011;9223;50.988;3.162;2023-01-06T20:00:45;4.55;;;4.15;;
18194;SDS011;9223;50.988;3.162;2023-01-06T20:06:50;3.90;;;2.97;;
18194;SDS011;9223;50.988;3.162;2023-01-06T20:12:53;4.15;;;3.72;;
18194;SDS011;9223;50.988;3.162;2023-01-06T20:18:58;2.63;;;2.42;;
18194;SDS011;9223;50.988;3.162;2023-01-06T20:25:02;1.80;;;1.70;;
18194;SDS011;9223;50.988;3.162;2023-01-06T20:31:05;3.28;;;2.97;;
18194;SDS011;9223;50.988;3.162;2023-01-06T20:37:10;5.13;;;2.80;;
18194;SDS011;9223;50.988;3.162;2023-01-06T20:43:13;3.92;;;3.28;;
18194;SDS011;9223;50.988;3.162;2023-01-06T20:49:17;2.17;;;1.90;;
18194;SDS011;9223;50.988;3.162;2023-01-06T20:55:22;4.80;;;3.35;;
18194;SDS011;9223;50.988;3.162;2023-01-06T21:01:25;5.43;;;2.75;;
18194;SDS011;9223;50.988;3.162;2023-01-06T21:07:29;5.30;;;3.45;;
18194;SDS011;9223;50.988;3.162;2023-01-06T21:13:35;4.97;;;3.72;;
18194;SDS011;9223;50.988;3.162;2023-01-06T21:19:38;4.47;;;3.72;;
18194;SDS011;9223;50.988;3.162;2023-01-06T21:25:42;5.30;;;2.72;;
18194;SDS011;9223;50.988;3.162;2023-01-06T21:31:47;4.30;;;2.80;;
18194;SDS011;9223;50.988;3.162;2023-01-06T21:37:50;3.35;;;2.92;;
18194;SDS011;9223;50.988;3.162;2023-01-06T21:43:53;4.22;;;3.20;;
18194;SDS011;9223;50.988;3.162;2023-01-06T21:49:58;3.55;;;2.50;;
18194;SDS011;9223;50.988;3.162;2023-01-06T21:56:02;4.10;;;3.15;;
18194;SDS011;9223;50.988;3.162;2023-01-06T22:02:07;4.65;;;2.25;;
18194;SDS011;9223;50.988;3.162;2023-01-06T22:08:12;3.25;;;2.95;;
18194;SDS011;9223;50.988;3.162;2023-01-06T22:14:16;4.03;;;2.30;;
18194;SDS011;9223;50.988;3.162;2023-01-06T22:20:19;2.22;;;1.85;;
18194;SDS011;9223;50.988;3.162;2023-01-06T22:26:24;5.05;;;2.53;;
18194;SDS011;9223;50.988;3.162;2023-01-06T22:32:27;3.75;;;2.85;;
18194;SDS011;9223;50.988;3.162;2023-01-06T22:38:32;2.50;;;2.30;;
18194;SDS011;9223;50.988;3.162;2023-01-06T22:44:37;3.22;;;2.42;;
18194;SDS011;9223;50.988;3.162;2023-01-06T22:50:41;2.17;;;1.52;;
18194;SDS011;9223;50.988;3.162;2023-01-06T22:56:44;2.55;;;1.80;;
18194;SDS011;9223;50.988;3.162;2023-01-06T23:02:49;4.93;;;2.55;;
18194;SDS011;9223;50.988;3.162;2023-01-06T23:08:53;3.30;;;2.50;;
18194;SDS011;9223;50.988;3.162;2023-01-06T23:15:01;2.53;;;2.10;;
18194;SDS011;9223;50.988;3.162;2023-01-06T23:21:07;3.08;;;2.78;;
18194;SDS011;9223;50.988;3.162;2023-01-06T23:27:10;4.88;;;2.55;;
18194;SDS011;9223;50.988;3.162;2023-01-06T23:33:14;4.25;;;2.95;;
18194;SDS011;9223;50.988;3.162;2023-01-06T23:39:19;3.60;;;2.03;;
18194;SDS011;9223;50.988;3.162;2023-01-06T23:45:22;5.47;;;2.20;;
18194;SDS011;9223;50.988;3.162;2023-01-06T23:51:26;6.18;;;1.92;;
18194;SDS011;9223;50.988;3.162;2023-01-06T23:57:32;3.58;;;2.08;;
